createdAt,value
2023-01-04T14:43:02.151Z,5.55
2023-01-04T14:49:07.832Z,2.70
2023-01-04T14:55:13.887Z,4.20
2023-01-04T15:01:15.772Z,4.18
2023-01-04T15:07:35.818Z,4.40
2023-01-04T15:13:39.805Z,5.32
2023-01-04T15:19:41.850Z,2.95
2023-01-04T15:25:44.798Z,5.03
2023-01-04T15:31:46.917Z,3.95
2023-01-04T15:37:49.376Z,2.40
2023-01-04T15:43:51.213Z,5.30
2023-01-04T15:49:53.060Z,4.00
2023-01-04T15:55:54.891Z,3.33
2023-01-04T16:01:57.049Z,3.83
2023-01-04T16:07:59.009Z,3.80
2023-01-04T16:14:01.003Z,3.20
2023-01-04T16:20:03.319Z,3.70
2023-01-04T16:26:09.546Z,4.00
2023-01-04T16:32:11.446Z,3.75
2023-01-04T16:38:13.261Z,3.05
2023-01-04T16:44:15.108Z,2.63
2023-01-04T16:50:17.022Z,2.47
2023-01-04T16:56:20.901Z,2.80
2023-01-04T17:02:23.435Z,3.10
2023-01-04T17:08:27.227Z,3.53
2023-01-04T17:14:30.749Z,3.47
2023-01-04T17:20:32.684Z,3.70
2023-01-04T17:26:34.455Z,4.20
2023-01-04T17:32:36.319Z,3.60
2023-01-04T17:38:38.399Z,5.45
2023-01-04T17:44:40.580Z,5.22
2023-01-04T17:50:42.885Z,5.40
2023-01-04T17:56:47.654Z,1.92
2023-01-04T18:02:49.521Z,2.30
2023-01-04T18:08:51.375Z,2.70
2023-01-04T18:14:53.259Z,2.33
2023-01-04T18:20:58.935Z,2.72
2023-01-04T18:27:20.982Z,2.83
2023-01-04T18:33:23.369Z,2.65
2023-01-04T18:39:25.501Z,3.20
2023-01-04T18:45:27.447Z,2.47
2023-01-04T18:51:29.790Z,3.38
2023-01-04T18:57:32.338Z,5.10
2023-01-04T19:03:38.025Z,7.47
2023-01-04T19:09:39.928Z,10.05
2023-01-04T19:15:47.746Z,12.98
2023-01-04T19:21:50.032Z,12.18
2023-01-04T19:27:51.956Z,13.38
2023-01-04T19:33:53.922Z,17.75
2023-01-04T19:39:55.830Z,12.60
2023-01-04T19:45:57.856Z,10.40
2023-01-04T19:52:00.661Z,7.15
2023-01-04T19:58:02.673Z,5.47
2023-01-04T20:04:04.787Z,9.75
2023-01-04T20:10:13.844Z,9.25
2023-01-04T20:16:17.398Z,14.55
2023-01-04T20:22:19.521Z,11.88
2023-01-04T20:28:24.400Z,13.50
2023-01-04T20:34:26.780Z,18.63
2023-01-04T20:40:28.929Z,14.05
2023-01-04T20:46:33.051Z,11.65
2023-01-04T20:52:35.120Z,12.73
2023-01-04T20:58:37.803Z,14.10
2023-01-04T21:04:39.666Z,10.98
2023-01-04T21:10:43.037Z,9.07
2023-01-04T21:16:45.494Z,14.48
2023-01-04T21:22:47.400Z,15.40
2023-01-04T21:28:49.271Z,10.65
2023-01-04T21:34:53.011Z,16.42
2023-01-04T21:40:54.843Z,11.73
2023-01-04T21:46:56.715Z,24.50
2023-01-04T21:52:58.804Z,19.17
2023-01-04T21:59:00.602Z,21.73
2023-01-04T22:05:02.541Z,14.20
2023-01-04T22:11:05.021Z,19.23
2023-01-04T22:17:06.871Z,19.60
2023-01-04T22:23:08.681Z,10.60
2023-01-04T22:29:11.319Z,7.88
2023-01-04T22:35:13.196Z,11.90
2023-01-04T22:41:16.956Z,6.50
2023-01-04T22:47:19.000Z,8.38
2023-01-04T22:53:21.173Z,15.85
2023-01-04T22:59:23.257Z,14.25
2023-01-04T23:05:25.111Z,12.55
2023-01-04T23:11:28.832Z,12.95
2023-01-04T23:17:30.653Z,12.48
2023-01-04T23:23:35.594Z,13.52
2023-01-04T23:29:37.551Z,17.80
2023-01-04T23:35:39.508Z,19.10
2023-01-04T23:41:45.157Z,20.30
2023-01-04T23:47:49.047Z,22.50
2023-01-04T23:53:50.872Z,21.75
2023-01-04T23:59:52.768Z,28.95
